createdAt,value
2023-05-19T00:02:21.740Z,100.00
2023-05-19T00:05:11.475Z,100.00
2023-05-19T00:08:01.207Z,100.00
2023-05-19T00:10:49.568Z,100.00
2023-05-19T00:13:37.623Z,100.00
2023-05-19T00:16:26.618Z,100.00
2023-05-19T00:19:14.437Z,100.00
2023-05-19T00:22:02.657Z,100.00
2023-05-19T00:24:50.885Z,100.00
2023-05-19T00:27:38.951Z,100.00
2023-05-19T00:30:27.014Z,100.00
2023-05-19T00:33:15.011Z,100.00
2023-05-19T00:36:03.924Z,100.00
2023-05-19T00:38:52.545Z,100.00
2023-05-19T00:41:40.759Z,100.00
2023-05-19T00:44:28.893Z,100.00
2023-05-19T00:47:17.193Z,100.00
2023-05-19T00:50:05.672Z,100.00
2023-05-19T00:52:54.448Z,100.00
2023-05-19T00:55:43.025Z,100.00
2023-05-19T00:58:33.000Z,100.00
2023-05-19T01:01:22.017Z,100.00
2023-05-19T01:04:11.564Z,100.00
2023-05-19T01:06:59.805Z,100.00
2023-05-19T01:09:47.998Z,100.00
2023-05-19T01:12:36.419Z,100.00
2023-05-19T01:15:24.551Z,100.00
2023-05-19T01:18:14.495Z,100.00
2023-05-19T01:21:44.644Z,100.00
2023-05-19T01:25:00.597Z,100.00
2023-05-19T01:28:01.063Z,100.00
2023-05-19T01:30:49.980Z,100.00
2023-05-19T01:33:38.109Z,100.00
2023-05-19T01:36:26.214Z,100.00
2023-05-19T01:39:14.212Z,100.00
2023-05-19T01:42:03.790Z,100.00
2023-05-19T01:44:51.920Z,100.00
2023-05-19T01:47:42.723Z,100.00
2023-05-19T01:50:31.095Z,100.00
2023-05-19T01:53:19.356Z,100.00
2023-05-19T01:56:07.899Z,100.00
2023-05-19T01:59:00.702Z,100.00
2023-05-19T02:01:53.678Z,100.00
2023-05-19T02:04:45.294Z,100.00
2023-05-19T02:07:42.709Z,100.00
2023-05-19T02:10:31.460Z,100.00
2023-05-19T02:13:21.609Z,100.00
2023-05-19T02:16:09.739Z,100.00
2023-05-19T02:18:59.668Z,100.00
2023-05-19T02:21:48.039Z,100.00
2023-05-19T02:24:37.829Z,100.00
2023-05-19T02:27:26.600Z,100.00
2023-05-19T02:30:14.685Z,100.00
2023-05-19T02:33:02.847Z,100.00
2023-05-19T02:35:50.842Z,100.00
2023-05-19T02:38:39.064Z,100.00
2023-05-19T02:41:27.055Z,100.00
2023-05-19T02:44:15.555Z,100.00
2023-05-19T02:47:03.681Z,100.00
2023-05-19T02:49:51.826Z,100.00
2023-05-19T02:52:39.893Z,100.00
2023-05-19T02:55:28.189Z,100.00
2023-05-19T02:58:16.241Z,100.00
2023-05-19T03:01:04.559Z,100.00
2023-05-19T03:03:52.786Z,100.00
2023-05-19T03:06:42.550Z,100.00
2023-05-19T03:09:31.393Z,100.00
2023-05-19T03:12:19.522Z,100.00
2023-05-19T03:15:08.776Z,100.00
2023-05-19T03:17:57.336Z,100.00
2023-05-19T03:20:45.661Z,100.00
2023-05-19T03:23:33.830Z,100.00
2023-05-19T03:26:23.245Z,100.00
2023-05-19T03:29:11.631Z,100.00
2023-05-19T03:32:01.891Z,100.00
2023-05-19T03:34:50.139Z,100.00
2023-05-19T03:37:38.513Z,100.00
2023-05-19T03:40:26.645Z,100.00
2023-05-19T03:43:18.763Z,100.00
2023-05-19T03:46:10.839Z,100.00
2023-05-19T03:49:17.768Z,100.00
2023-05-19T03:52:24.521Z,100.00
2023-05-19T03:55:21.558Z,100.00
2023-05-19T03:58:10.932Z,100.00
2023-05-19T04:00:58.561Z,100.00
2023-05-19T04:03:46.901Z,100.00
2023-05-19T04:06:36.497Z,100.00
2023-05-19T04:09:24.557Z,100.00
2023-05-19T04:12:12.836Z,100.00
2023-05-19T04:15:00.899Z,100.00
2023-05-19T04:17:49.278Z,100.00
2023-05-19T04:20:37.455Z,100.00
2023-05-19T04:23:25.590Z,100.00
2023-05-19T04:26:15.279Z,99.48
2023-05-19T04:29:04.822Z,88.52
2023-05-19T04:31:53.104Z,86.30
2023-05-19T04:34:45.414Z,79.78
2023-05-19T04:37:38.593Z,68.78
2023-05-19T04:40:27.024Z,65.10
2023-05-19T04:43:16.130Z,59.56
2023-05-19T04:46:06.602Z,56.36
2023-05-19T04:48:57.363Z,54.69
2023-05-19T04:51:46.166Z,53.41
2023-05-19T04:54:38.556Z,52.66
2023-05-19T04:57:27.146Z,51.65
2023-05-19T05:00:15.913Z,50.34
2023-05-19T05:03:24.662Z,48.93
2023-05-19T05:06:13.049Z,46.57
2023-05-19T05:09:01.397Z,45.27
2023-05-19T05:11:50.139Z,44.62
2023-05-19T05:14:40.450Z,45.75
2023-05-19T05:17:29.587Z,44.84
2023-05-19T05:20:19.748Z,44.85
2023-05-19T05:23:09.814Z,43.78
2023-05-19T05:25:59.021Z,43.31
2023-05-19T05:28:47.300Z,43.20
2023-05-19T05:31:37.142Z,42.57
2023-05-19T05:34:25.490Z,42.06
2023-05-19T05:37:15.317Z,42.20
2023-05-19T05:40:04.917Z,42.13
2023-05-19T05:42:55.599Z,41.13
2023-05-19T05:45:44.042Z,40.97
2023-05-19T05:48:32.516Z,39.98
2023-05-19T05:51:24.786Z,39.45
2023-05-19T05:54:13.900Z,39.47
2023-05-19T05:57:05.753Z,38.62
2023-05-19T05:59:53.792Z,39.03
2023-05-19T06:02:46.823Z,39.58
2023-05-19T06:05:36.742Z,39.34
2023-05-19T06:08:24.888Z,39.33
2023-05-19T06:11:13.001Z,39.21
2023-05-19T06:14:02.080Z,38.60
2023-05-19T06:17:06.828Z,37.84
2023-05-19T06:19:56.314Z,37.96
2023-05-19T06:22:44.159Z,37.88
2023-05-19T06:25:32.916Z,37.29
2023-05-19T06:28:21.355Z,37.24
2023-05-19T06:31:11.054Z,36.91
2023-05-19T06:34:07.065Z,36.12
2023-05-19T06:36:55.632Z,35.47
2023-05-19T06:39:44.143Z,35.54
2023-05-19T06:42:32.312Z,36.09
2023-05-19T06:45:28.410Z,35.27
2023-05-19T06:48:17.440Z,34.60
2023-05-19T06:51:05.697Z,34.17
2023-05-19T06:53:54.005Z,33.58
2023-05-19T06:56:43.220Z,32.32
2023-05-19T06:59:31.708Z,32.41
2023-05-19T07:02:20.522Z,32.59
2023-05-19T07:05:09.526Z,32.40
2023-05-19T07:07:57.958Z,31.71
2023-05-19T07:10:48.094Z,30.59
2023-05-19T07:13:36.419Z,31.32
2023-05-19T07:16:25.621Z,31.74
2023-05-19T07:19:15.331Z,31.57
2023-05-19T07:22:05.086Z,30.57
2023-05-19T07:24:53.131Z,30.65
2023-05-19T07:27:41.380Z,30.54
2023-05-19T07:30:30.015Z,30.51
2023-05-19T07:33:18.133Z,29.88
2023-05-19T07:36:06.395Z,30.11
2023-05-19T07:38:54.543Z,29.76
2023-05-19T07:41:42.715Z,28.58
2023-05-19T07:44:35.007Z,28.31
2023-05-19T07:47:23.025Z,28.87
2023-05-19T07:50:11.193Z,28.58
2023-05-19T07:52:59.305Z,28.04
2023-05-19T07:55:47.477Z,27.34
2023-05-19T07:58:35.583Z,28.43
2023-05-19T08:01:23.624Z,28.27
2023-05-19T08:04:13.268Z,28.27
2023-05-19T08:07:03.751Z,28.16
2023-05-19T08:09:51.538Z,28.32
2023-05-19T08:12:39.700Z,27.67
2023-05-19T08:15:27.913Z,27.10
2023-05-19T08:18:16.071Z,28.02
2023-05-19T08:21:04.327Z,27.31
2023-05-19T08:23:52.520Z,26.09
2023-05-19T08:26:40.858Z,25.67
2023-05-19T08:29:28.976Z,25.39
2023-05-19T08:32:17.691Z,25.26
2023-05-19T08:35:06.069Z,25.72
2023-05-19T08:37:54.341Z,25.58
2023-05-19T08:40:42.508Z,25.87
2023-05-19T08:43:30.492Z,25.31
2023-05-19T08:46:18.713Z,25.25
2023-05-19T08:49:12.574Z,24.75
2023-05-19T08:52:15.439Z,24.22
2023-05-19T08:55:09.798Z,23.87
2023-05-19T08:57:58.070Z,24.02
2023-05-19T09:00:46.778Z,23.13
2023-05-19T09:03:38.519Z,23.93
2023-05-19T09:06:26.873Z,24.13
2023-05-19T09:09:15.874Z,23.49
2023-05-19T09:12:06.916Z,24.08
2023-05-19T09:14:55.998Z,23.88
2023-05-19T09:17:44.983Z,23.76
2023-05-19T09:20:33.231Z,23.67
2023-05-19T09:23:21.282Z,23.51
2023-05-19T09:26:09.385Z,24.12
2023-05-19T09:28:58.460Z,23.52
2023-05-19T09:31:56.210Z,22.50
2023-05-19T09:34:44.014Z,21.91
2023-05-19T09:37:32.550Z,22.00
2023-05-19T09:40:20.616Z,20.96
2023-05-19T09:43:08.806Z,21.22
2023-05-19T09:46:07.007Z,22.12
2023-05-19T09:49:23.746Z,21.81
2023-05-19T09:52:38.799Z,21.25
2023-05-19T09:55:54.849Z,22.54
2023-05-19T09:59:10.126Z,21.66
2023-05-19T10:02:24.580Z,20.33
2023-05-19T10:05:44.239Z,19.21
2023-05-19T10:08:59.759Z,19.08
2023-05-19T10:12:15.082Z,19.67
2023-05-19T10:15:28.590Z,19.38
2023-05-19T10:18:43.397Z,19.71
2023-05-19T10:21:56.930Z,19.43
2023-05-19T10:25:12.107Z,19.42
2023-05-19T10:28:37.440Z,19.67
2023-05-19T10:31:52.236Z,20.93
2023-05-19T10:35:18.604Z,21.21
2023-05-19T10:38:38.187Z,20.85
2023-05-19T10:41:59.563Z,20.04
2023-05-19T10:45:26.884Z,18.28
2023-05-19T10:48:41.685Z,18.14
2023-05-19T10:52:00.128Z,18.90
2023-05-19T10:55:13.831Z,18.90
2023-05-19T10:58:28.961Z,18.94
2023-05-19T11:01:45.499Z,19.65
2023-05-19T11:04:51.170Z,18.86
2023-05-19T11:07:42.613Z,17.57
2023-05-19T11:10:30.605Z,17.91
2023-05-19T11:13:23.164Z,17.95
2023-05-19T11:16:11.657Z,17.93
2023-05-19T11:18:59.740Z,18.52
2023-05-19T11:21:49.418Z,19.33
2023-05-19T11:24:40.684Z,19.97
2023-05-19T11:27:32.991Z,19.38
2023-05-19T11:30:21.012Z,18.44
2023-05-19T11:33:09.094Z,17.48
2023-05-19T11:36:00.011Z,16.64
2023-05-19T11:38:48.085Z,16.95
2023-05-19T11:41:40.065Z,16.53
2023-05-19T11:44:27.663Z,16.63
2023-05-19T11:47:16.247Z,16.46
2023-05-19T11:50:04.506Z,16.98
2023-05-19T11:52:53.378Z,17.56
2023-05-19T11:55:48.402Z,17.92
2023-05-19T11:58:37.593Z,18.60
2023-05-19T12:01:28.743Z,18.80
2023-05-19T12:04:16.911Z,18.15
2023-05-19T12:07:05.387Z,18.47
2023-05-19T12:09:53.799Z,18.01
2023-05-19T12:12:42.760Z,18.74
2023-05-19T12:15:31.820Z,19.04
2023-05-19T12:18:20.300Z,19.44
2023-05-19T12:21:08.502Z,19.72
2023-05-19T12:23:56.535Z,19.93
2023-05-19T12:26:44.733Z,19.81
2023-05-19T12:29:32.912Z,19.60
2023-05-19T12:32:28.993Z,19.07
2023-05-19T12:35:17.122Z,17.88
2023-05-19T12:38:05.671Z,17.82
2023-05-19T12:40:53.822Z,17.06
2023-05-19T12:43:41.967Z,17.53
2023-05-19T12:46:30.141Z,18.12
2023-05-19T12:49:18.428Z,18.85
2023-05-19T12:52:11.898Z,19.08
2023-05-19T12:55:11.470Z,18.84
2023-05-19T12:57:59.567Z,18.53
2023-05-19T13:00:50.071Z,18.18
2023-05-19T13:03:44.268Z,17.77
2023-05-19T13:06:33.907Z,18.10
2023-05-19T13:09:22.027Z,17.60
2023-05-19T13:12:10.042Z,17.76
2023-05-19T13:15:00.262Z,16.98
2023-05-19T13:17:48.459Z,16.32
2023-05-19T13:20:37.470Z,15.81
2023-05-19T13:23:26.562Z,15.29
2023-05-19T13:26:14.820Z,15.60
2023-05-19T13:29:03.400Z,14.81
2023-05-19T13:31:51.500Z,14.71
2023-05-19T13:34:39.670Z,14.08
2023-05-19T13:37:28.456Z,14.25
2023-05-19T13:40:17.201Z,14.77
2023-05-19T13:43:06.255Z,15.38
2023-05-19T13:45:54.493Z,15.74
2023-05-19T13:48:42.498Z,15.39
2023-05-19T13:51:30.653Z,15.50
2023-05-19T13:54:18.753Z,16.09
2023-05-19T13:57:06.472Z,16.69
2023-05-19T14:00:06.053Z,16.99
2023-05-19T14:03:00.990Z,18.03
2023-05-19T14:05:49.131Z,18.40
2023-05-19T14:08:37.185Z,18.77
2023-05-19T14:11:25.256Z,19.23
2023-05-19T14:14:13.537Z,19.29
2023-05-19T14:17:01.695Z,19.43
2023-05-19T14:19:49.770Z,19.63
2023-05-19T14:22:37.911Z,19.85
2023-05-19T14:25:25.987Z,20.11
2023-05-19T14:28:14.244Z,20.33
2023-05-19T14:31:02.392Z,19.95
2023-05-19T14:33:51.030Z,19.84
2023-05-19T14:36:39.050Z,19.91
2023-05-19T14:39:27.102Z,20.64
2023-05-19T14:42:15.297Z,20.99
2023-05-19T14:45:03.687Z,21.20
2023-05-19T14:47:52.908Z,21.05
2023-05-19T14:50:41.068Z,21.58
2023-05-19T14:53:29.281Z,21.80
2023-05-19T14:56:17.276Z,21.79
2023-05-19T14:59:05.355Z,21.64
2023-05-19T15:01:53.470Z,21.61
2023-05-19T15:04:41.602Z,22.08
2023-05-19T15:07:29.616Z,22.44
2023-05-19T15:10:20.680Z,22.59
2023-05-19T15:13:08.796Z,22.67
2023-05-19T15:16:12.459Z,22.86
2023-05-19T15:19:04.221Z,23.25
2023-05-19T15:21:52.361Z,23.70
2023-05-19T15:24:41.404Z,23.95
2023-05-19T15:27:29.640Z,24.32
2023-05-19T15:30:18.073Z,24.71
2023-05-19T15:33:06.367Z,24.99
2023-05-19T15:35:54.637Z,25.50
2023-05-19T15:38:42.856Z,25.14
2023-05-19T15:41:30.879Z,25.24
2023-05-19T15:44:19.258Z,25.43
2023-05-19T15:47:07.376Z,25.63
2023-05-19T15:49:55.693Z,25.78
2023-05-19T15:52:43.751Z,26.01
2023-05-19T15:55:31.882Z,26.16
2023-05-19T15:58:20.041Z,27.09
2023-05-19T16:01:08.322Z,27.49
2023-05-19T16:03:56.529Z,27.45
2023-05-19T16:06:45.014Z,27.20
2023-05-19T16:09:33.147Z,27.45
2023-05-19T16:12:21.203Z,27.88
2023-05-19T16:15:09.742Z,27.89
2023-05-19T16:17:58.058Z,28.48
2023-05-19T16:20:46.258Z,28.98
2023-05-19T16:23:34.354Z,28.71
2023-05-19T16:26:22.973Z,28.85
2023-05-19T16:29:11.093Z,28.90
2023-05-19T16:31:59.249Z,29.08
2023-05-19T16:34:47.403Z,29.29
2023-05-19T16:37:35.568Z,30.19
2023-05-19T16:40:23.775Z,31.11
2023-05-19T16:43:11.844Z,31.66
2023-05-19T16:46:00.070Z,32.11
2023-05-19T16:48:48.146Z,32.48
2023-05-19T16:51:36.386Z,33.12
2023-05-19T16:54:24.865Z,33.59
2023-05-19T16:57:15.027Z,33.78
2023-05-19T17:00:03.984Z,34.00
2023-05-19T17:02:52.327Z,34.57
2023-05-19T17:05:42.069Z,35.30
2023-05-19T17:08:30.115Z,35.93
2023-05-19T17:11:18.224Z,36.44
2023-05-19T17:14:09.483Z,37.36
2023-05-19T17:16:57.629Z,38.05
2023-05-19T17:19:46.164Z,37.91
2023-05-19T17:22:34.288Z,38.23
2023-05-19T17:25:22.409Z,38.69
2023-05-19T17:28:10.590Z,38.79
2023-05-19T17:30:58.768Z,39.75
2023-05-19T17:33:46.949Z,40.89
2023-05-19T17:36:35.106Z,42.54
2023-05-19T17:39:24.603Z,43.88
2023-05-19T17:42:12.714Z,43.74
2023-05-19T17:45:00.731Z,43.49
2023-05-19T17:48:14.585Z,43.61
2023-05-19T17:51:30.114Z,45.51
2023-05-19T17:54:43.224Z,45.61
2023-05-19T17:57:59.014Z,45.56
2023-05-19T18:01:12.553Z,47.13
2023-05-19T18:04:27.756Z,46.74
2023-05-19T18:07:41.214Z,46.43
2023-05-19T18:10:56.067Z,46.90
2023-05-19T18:14:09.609Z,47.98
2023-05-19T18:17:24.768Z,48.55
2023-05-19T18:20:38.319Z,49.00
2023-05-19T18:23:53.146Z,50.28
2023-05-19T18:27:06.089Z,52.47
2023-05-19T18:30:21.647Z,55.61
2023-05-19T18:33:35.527Z,57.27
2023-05-19T18:36:51.052Z,57.65
2023-05-19T18:40:04.880Z,57.31
2023-05-19T18:43:20.404Z,57.17
2023-05-19T18:46:33.645Z,57.79
2023-05-19T18:49:50.420Z,58.97
2023-05-19T18:53:03.494Z,61.33
2023-05-19T18:56:19.007Z,62.78
2023-05-19T18:59:32.524Z,62.88
2023-05-19T19:02:47.546Z,59.81
2023-05-19T19:06:00.434Z,58.83
2023-05-19T19:09:15.294Z,59.93
2023-05-19T19:12:28.779Z,63.82
2023-05-19T19:15:35.514Z,63.17
2023-05-19T19:18:48.894Z,65.35
2023-05-19T19:22:02.701Z,65.93
2023-05-19T19:25:16.781Z,66.61
2023-05-19T19:28:31.952Z,66.80
2023-05-19T19:31:45.740Z,63.39
2023-05-19T19:35:01.021Z,61.31
2023-05-19T19:38:17.155Z,60.45
2023-05-19T19:41:32.572Z,59.37
2023-05-19T19:44:46.599Z,58.87
2023-05-19T19:48:02.218Z,57.18
2023-05-19T19:51:22.419Z,56.64
2023-05-19T19:54:37.296Z,56.68
2023-05-19T19:57:50.373Z,56.49
2023-05-19T20:46:41.558Z,100.00
2023-05-19T20:49:57.230Z,100.00
2023-05-19T20:53:10.450Z,100.00
2023-05-19T20:56:25.311Z,100.00
2023-05-19T20:59:38.586Z,100.00
2023-05-19T21:02:54.249Z,100.00
2023-05-19T21:06:07.730Z,100.00
2023-05-19T21:09:22.827Z,100.00
2023-05-19T21:12:35.444Z,100.00
2023-05-19T21:15:50.465Z,100.00
2023-05-19T21:19:03.919Z,100.00
2023-05-19T21:22:19.176Z,100.00
2023-05-19T21:25:32.976Z,100.00
2023-05-19T21:28:48.237Z,100.00
2023-05-19T21:32:01.974Z,100.00
2023-05-19T21:35:17.195Z,100.00
2023-05-19T21:38:31.608Z,100.00
2023-05-19T21:41:46.549Z,100.00
2023-05-19T21:44:59.637Z,100.00
2023-05-19T21:48:14.845Z,100.00
2023-05-19T21:51:28.968Z,100.00
2023-05-19T21:54:45.649Z,100.00
2023-05-19T21:58:44.823Z,100.00
2023-05-19T22:02:46.447Z,100.00
2023-05-19T22:06:46.979Z,100.00
2023-05-19T22:10:48.782Z,100.00
2023-05-19T22:14:47.939Z,100.00
2023-05-19T22:18:49.304Z,100.00
2023-05-19T22:22:48.098Z,100.00
2023-05-19T22:26:49.780Z,100.00
2023-05-19T22:30:46.967Z,100.00
2023-05-19T22:34:48.449Z,100.00
2023-05-19T22:38:46.928Z,100.00
2023-05-19T22:42:48.267Z,100.00
2023-05-19T22:46:47.005Z,100.00
2023-05-19T22:50:48.471Z,100.00
2023-05-19T22:54:46.000Z,100.00
2023-05-19T22:58:47.462Z,100.00
2023-05-19T23:02:46.185Z,100.00
2023-05-19T23:06:47.423Z,100.00
2023-05-19T23:10:46.039Z,100.00
2023-05-19T23:14:47.369Z,100.00
2023-05-19T23:18:45.952Z,100.00
2023-05-19T23:22:47.553Z,100.00
2023-05-19T23:26:46.893Z,100.00
2023-05-19T23:30:48.671Z,100.00
2023-05-19T23:34:47.044Z,100.00
2023-05-19T23:38:48.398Z,100.00
2023-05-19T23:42:47.158Z,100.00
2023-05-19T23:46:48.465Z,100.00
2023-05-19T23:50:46.099Z,100.00
2023-05-19T23:54:46.514Z,100.00
2023-05-19T23:58:44.379Z,100.00
